Terminal Aerodrome Forecast
Issued by NWS

Home | Current Version | Previous Version | Graphics & Text | Print | Product List | Glossary On
Versions: 1 2 3 4 5 6 7 8 9 10 11 12 13 14 15 16 17 18 19 20 21 22 23 24 25 26 27 28 29 30 31
000
FTUS43 KLOT 271941 AAA
TAFDPA
TAF AMD
KDPA 271941Z 2720/2818 07006KT 3SM BR OVC006
      TEMPO 2720/2721 1 1/2SM BR OVC003
     FM272100 05007KT 5SM BR VCSH OVC007
     FM280100 01009KT 6SM BR OVC008=

USA.gov is the U.S. government's official web portal to all federal, state and local government web resources and services.